PWSweather.com
Personal Weather Stations
Station Observations
CARNOUSTIE
Pambride, CarnoustieGB DD7 6DY

PambrideCarnoustieGB DD7 6DY

Lat: 56.50889, Lon: -2.7051

Elevation: 105

Station Type: Oregon Scientific WMR200

www.carnoustieweather.co.uk

High Low Average
Temperature 68.2°F20.1°C 53.6°F12.0°C 59.1°F15.1°C
Dew Point 57.1°F13.9°C 43.4°F6.3°C 48.5°F9.2°C
Winds 10.4 mph 16.7 kmh Calm Calm 5.0 mph SE8.0 kmh SE
Wind Gusts 13.8 mph22.2 kmh 2.3 mph3.7 kmh 7.0 mph11.3 kmh
Humidity 83% 49% 69%
Pressure 29.94 in1013.9 mb 29.71 in1006.1 mb -
Precipitation 0.00 in0.0 mm - -
Hour Temp Dew Point Humidity Winds Wind Gusts Pressure Precip Precip Rate Daily Precip Total
12:00 AM 56.7°F13.7°C 48.8°F9.3°C 75% 6.9 mph W11.1 kmh W 11.5 mph18.5 kmh 29.86 in1011.2 mb - 0.00 in0.0 mm 0.00 in0.0 mm
12:10 AM 56.7°F13.7°C 48.8°F9.3°C 75% 5.8 mph SW9.3 kmh SW 9.2 mph14.8 kmh 29.86 in1011.2 mb - 0.00 in0.0 mm 0.00 in0.0 mm
12:15 AM 56.7°F13.7°C 48.8°F9.3°C 75% 4.6 mph SW7.4 kmh SW 6.9 mph11.1 kmh 29.86 in1011.2 mb - 0.00 in0.0 mm 0.00 in0.0 mm
12:20 AM 56.7°F13.7°C 48.8°F9.3°C 75% 3.5 mph WSW5.6 kmh WSW 4.6 mph7.4 kmh 29.86 in1011.2 mb - 0.00 in0.0 mm 0.00 in0.0 mm
12:30 AM 56.7°F13.7°C 48.5°F9.2°C 74% 3.5 mph SW5.6 kmh SW 4.6 mph7.4 kmh 29.86 in1011.2 mb - 0.00 in0.0 mm 0.00 in0.0 mm
12:35 AM 56.7°F13.7°C 48.5°F9.2°C 74% 4.6 mph SW7.4 kmh SW 5.8 mph9.3 kmh 29.86 in1011.2 mb - 0.00 in0.0 mm 0.00 in0.0 mm
12:40 AM 56.5°F13.6°C 48.3°F9.1°C 74% 4.6 mph SSE7.4 kmh SSE 5.8 mph9.3 kmh 29.86 in1011.2 mb - 0.00 in0.0 mm 0.00 in0.0 mm
12:45 AM 56.3°F13.5°C 48.1°F8.9°C 74% 6.9 mph NW11.1 kmh NW 8.1 mph13.0 kmh 29.86 in1011.2 mb - 0.00 in0.0 mm 0.00 in0.0 mm
12:50 AM 56.1°F13.4°C 47.9°F8.8°C 74% 6.9 mph W11.1 kmh W 9.2 mph14.8 kmh 29.86 in1011.2 mb - 0.00 in0.0 mm 0.00 in0.0 mm
12:55 AM 56.3°F13.5°C 48.1°F8.9°C 74% 5.8 mph WSW9.3 kmh WSW 9.2 mph14.8 kmh 29.86 in1011.2 mb - 0.00 in0.0 mm 0.00 in0.0 mm
01:00 AM 56.3°F13.5°C 48.1°F8.9°C 74% 8.1 mph WSW13.0 kmh WSW 11.5 mph18.5 kmh 29.86 in1011.2 mb - 0.00 in0.0 mm 0.00 in0.0 mm
01:10 AM 56.5°F13.6°C 48.3°F9.1°C 74% 5.8 mph W9.3 kmh W 6.9 mph11.1 kmh 29.86 in1011.2 mb - 0.00 in0.0 mm 0.00 in0.0 mm
01:15 AM 56.5°F13.6°C 48.3°F9.1°C 74% 5.8 mph W9.3 kmh W 8.1 mph13.0 kmh 29.86 in1011.2 mb - 0.00 in0.0 mm 0.00 in0.0 mm
01:20 AM 56.5°F13.6°C 48.3°F9.1°C 74% 3.5 mph WSW5.6 kmh WSW 6.9 mph11.1 kmh 29.86 in1011.2 mb - 0.00 in0.0 mm 0.00 in0.0 mm
01:25 AM 56.5°F13.6°C 48.3°F9.1°C 74% 5.8 mph WSW9.3 kmh WSW 6.9 mph11.1 kmh 29.86 in1011.2 mb - 0.00 in0.0 mm 0.00 in0.0 mm
01:30 AM 56.5°F13.6°C 48.3°F9.1°C 74% 6.9 mph W11.1 kmh W 9.2 mph14.8 kmh 29.86 in1011.2 mb - 0.00 in0.0 mm 0.00 in0.0 mm
01:35 AM 56.5°F13.6°C 48.3°F9.1°C 74% 5.8 mph WSW9.3 kmh WSW 10.4 mph16.7 kmh 29.86 in1011.2 mb - 0.00 in0.0 mm 0.00 in0.0 mm
01:40 AM 56.5°F13.6°C 48.3°F9.1°C 74% 5.8 mph SW9.3 kmh SW 8.1 mph13.0 kmh 29.88 in1011.9 mb - 0.00 in0.0 mm 0.00 in0.0 mm
01:45 AM 56.5°F13.6°C 48.3°F9.1°C 74% 4.6 mph SW7.4 kmh SW 5.8 mph9.3 kmh 29.88 in1011.9 mb - 0.00 in0.0 mm 0.00 in0.0 mm
01:50 AM 56.5°F13.6°C 48.3°F9.1°C 74% 6.9 mph WSW11.1 kmh WSW 9.2 mph14.8 kmh 29.88 in1011.9 mb - 0.00 in0.0 mm 0.00 in0.0 mm
01:55 AM 56.5°F13.6°C 48.3°F9.1°C 74% 6.9 mph WSW11.1 kmh WSW 8.1 mph13.0 kmh 29.86 in1011.2 mb - 0.00 in0.0 mm 0.00 in0.0 mm
02:00 AM 56.5°F13.6°C 48.3°F9.1°C 74% 4.6 mph WSW7.4 kmh WSW 9.2 mph14.8 kmh 29.86 in1011.2 mb - 0.00 in0.0 mm 0.00 in0.0 mm
02:10 AM 56.5°F13.6°C 48.3°F9.1°C 74% 5.8 mph WSW9.3 kmh WSW 9.2 mph14.8 kmh 29.86 in1011.2 mb - 0.00 in0.0 mm 0.00 in0.0 mm
02:15 AM 56.5°F13.6°C 48.3°F9.1°C 74% 5.8 mph WSW9.3 kmh WSW 6.9 mph11.1 kmh 29.86 in1011.2 mb - 0.00 in0.0 mm 0.00 in0.0 mm
02:20 AM 56.5°F13.6°C 48.3°F9.1°C 74% 4.6 mph SW7.4 kmh SW 5.8 mph9.3 kmh 29.86 in1011.2 mb - 0.00 in0.0 mm 0.00 in0.0 mm
02:25 AM 56.5°F13.6°C 48.3°F9.1°C 74% 4.6 mph WSW7.4 kmh WSW 4.6 mph7.4 kmh 29.86 in1011.2 mb - 0.00 in0.0 mm 0.00 in0.0 mm
02:30 AM 56.5°F13.6°C 48.3°F9.1°C 74% 4.6 mph WSW7.4 kmh WSW 5.8 mph9.3 kmh 29.86 in1011.2 mb - 0.00 in0.0 mm 0.00 in0.0 mm
02:35 AM 56.5°F13.6°C 48.3°F9.1°C 74% 3.5 mph WSW5.6 kmh WSW 4.6 mph7.4 kmh 29.86 in1011.2 mb - 0.00 in0.0 mm 0.00 in0.0 mm
02:40 AM 56.5°F13.6°C 48.3°F9.1°C 74% 4.6 mph WSW7.4 kmh WSW 4.6 mph7.4 kmh 29.86 in1011.2 mb - 0.00 in0.0 mm 0.00 in0.0 mm
02:45 AM 56.5°F13.6°C 48.3°F9.1°C 74% 4.6 mph W7.4 kmh W 5.8 mph9.3 kmh 29.86 in1011.2 mb - 0.00 in0.0 mm 0.00 in0.0 mm
02:50 AM 56.5°F13.6°C 48.3°F9.1°C 74% 2.3 mph W3.7 kmh W 5.8 mph9.3 kmh 29.86 in1011.2 mb - 0.00 in0.0 mm 0.00 in0.0 mm
02:55 AM 56.5°F13.6°C 48.3°F9.1°C 74% 3.5 mph WSW5.6 kmh WSW 4.6 mph7.4 kmh 29.86 in1011.2 mb - 0.00 in0.0 mm 0.00 in0.0 mm
03:00 AM 56.5°F13.6°C 48.3°F9.1°C 74% Calm Calm 2.3 mph3.7 kmh 29.86 in1011.2 mb - 0.00 in0.0 mm 0.00 in0.0 mm
03:10 AM 56.5°F13.6°C 48.3°F9.1°C 74% 3.5 mph W5.6 kmh W 5.8 mph9.3 kmh 29.86 in1011.2 mb - 0.00 in0.0 mm 0.00 in0.0 mm
03:15 AM 56.7°F13.7°C 48.5°F9.2°C 74% 3.5 mph SSE5.6 kmh SSE 3.5 mph5.6 kmh 29.86 in1011.2 mb - 0.00 in0.0 mm 0.00 in0.0 mm
03:20 AM 56.7°F13.7°C 48.5°F9.2°C 74% 1.2 mph NE1.9 kmh NE 2.3 mph3.7 kmh 29.86 in1011.2 mb - 0.00 in0.0 mm 0.00 in0.0 mm
03:25 AM 56.7°F13.7°C 48.5°F9.2°C 74% 3.5 mph SSW5.6 kmh SSW 4.6 mph7.4 kmh 29.86 in1011.2 mb - 0.00 in0.0 mm 0.00 in0.0 mm
03:30 AM 56.7°F13.7°C 48.5°F9.2°C 74% 3.5 mph SSW5.6 kmh SSW 5.8 mph9.3 kmh 29.86 in1011.2 mb - 0.00 in0.0 mm 0.00 in0.0 mm
03:35 AM 56.7°F13.7°C 48.5°F9.2°C 74% 3.5 mph SW5.6 kmh SW 3.5 mph5.6 kmh 29.86 in1011.2 mb - 0.00 in0.0 mm 0.00 in0.0 mm
03:40 AM 56.7°F13.7°C 48.1°F8.9°C 73% 2.3 mph SSW3.7 kmh SSW 4.6 mph7.4 kmh 29.86 in1011.2 mb - 0.00 in0.0 mm 0.00 in0.0 mm
03:45 AM 56.7°F13.7°C 48.1°F8.9°C 73% 2.3 mph WSW3.7 kmh WSW 2.3 mph3.7 kmh 29.86 in1011.2 mb - 0.00 in0.0 mm 0.00 in0.0 mm
03:50 AM 56.5°F13.6°C 47.9°F8.8°C 73% 2.3 mph W3.7 kmh W 2.3 mph3.7 kmh 29.86 in1011.2 mb - 0.00 in0.0 mm 0.00 in0.0 mm
03:55 AM 56.5°F13.6°C 47.9°F8.8°C 73% 3.5 mph W5.6 kmh W 4.6 mph7.4 kmh 29.86 in1011.2 mb - 0.00 in0.0 mm 0.00 in0.0 mm
04:00 AM 56.3°F13.5°C 47.8°F8.8°C 73% 3.5 mph SW5.6 kmh SW 5.8 mph9.3 kmh 29.86 in1011.2 mb - 0.00 in0.0 mm 0.00 in0.0 mm
04:10 AM 56.3°F13.5°C 47.8°F8.8°C 73% 3.5 mph W5.6 kmh W 4.6 mph7.4 kmh 29.86 in1011.2 mb - 0.00 in0.0 mm 0.00 in0.0 mm
04:15 AM 56.3°F13.5°C 47.8°F8.8°C 73% 3.5 mph SW5.6 kmh SW 5.8 mph9.3 kmh 29.86 in1011.2 mb - 0.00 in0.0 mm 0.00 in0.0 mm
04:20 AM 56.1°F13.4°C 47.2°F8.4°C 72% 6.9 mph W11.1 kmh W 9.2 mph14.8 kmh 29.86 in1011.2 mb - 0.00 in0.0 mm 0.00 in0.0 mm
04:25 AM 56.3°F13.5°C 47.4°F8.6°C 72% 5.8 mph WSW9.3 kmh WSW 6.9 mph11.1 kmh 29.82 in1009.8 mb - 0.00 in0.0 mm 0.00 in0.0 mm
04:30 AM 56.3°F13.5°C 47.4°F8.6°C 72% 4.6 mph WSW7.4 kmh WSW 6.9 mph11.1 kmh 29.82 in1009.8 mb - 0.00 in0.0 mm 0.00 in0.0 mm
04:35 AM 56.3°F13.5°C 47.4°F8.6°C 72% 2.3 mph S3.7 kmh S 3.5 mph5.6 kmh 29.82 in1009.8 mb - 0.00 in0.0 mm 0.00 in0.0 mm
04:40 AM 56.3°F13.5°C 47.4°F8.6°C 72% 3.5 mph SW5.6 kmh SW 4.6 mph7.4 kmh 29.86 in1011.2 mb - 0.00 in0.0 mm 0.00 in0.0 mm
04:45 AM 56.3°F13.5°C 47.0°F8.3°C 71% 3.5 mph WSW5.6 kmh WSW 4.6 mph7.4 kmh 29.86 in1011.2 mb - 0.00 in0.0 mm 0.00 in0.0 mm
04:50 AM 56.3°F13.5°C 47.0°F8.3°C 71% 4.6 mph SW7.4 kmh SW 5.8 mph9.3 kmh 29.86 in1011.2 mb - 0.00 in0.0 mm 0.00 in0.0 mm
04:55 AM 56.3°F13.5°C 47.0°F8.3°C 71% 4.6 mph SSW7.4 kmh SSW 5.8 mph9.3 kmh 29.86 in1011.2 mb - 0.00 in0.0 mm 0.00 in0.0 mm
05:00 AM 56.2°F13.4°C 46.9°F8.3°C 71% 3.5 mph SW5.6 kmh SW 4.6 mph7.4 kmh 29.86 in1011.2 mb - 0.00 in0.0 mm 0.00 in0.0 mm
05:10 AM 56.1°F13.4°C 46.4°F8.0°C 70% 3.5 mph S5.6 kmh S 5.8 mph9.3 kmh 29.86 in1011.2 mb - 0.00 in0.0 mm 0.00 in0.0 mm
05:15 AM 55.9°F13.3°C 46.3°F7.9°C 70% 3.5 mph S5.6 kmh S 4.6 mph7.4 kmh 29.86 in1011.2 mb - 0.00 in0.0 mm 0.00 in0.0 mm
05:20 AM 55.9°F13.3°C 46.3°F7.9°C 70% 5.8 mph SSW9.3 kmh SSW 9.2 mph14.8 kmh 29.86 in1011.2 mb - 0.00 in0.0 mm 0.00 in0.0 mm
05:25 AM 55.9°F13.3°C 46.3°F7.9°C 70% 4.6 mph S7.4 kmh S 4.6 mph7.4 kmh 29.86 in1011.2 mb - 0.00 in0.0 mm 0.00 in0.0 mm
05:30 AM 55.8°F13.2°C 46.1°F7.8°C 70% 5.8 mph S9.3 kmh S 8.1 mph13.0 kmh 29.86 in1011.2 mb - 0.00 in0.0 mm 0.00 in0.0 mm
05:35 AM 55.8°F13.2°C 46.1°F7.8°C 70% 5.8 mph S9.3 kmh S 6.9 mph11.1 kmh 29.86 in1011.2 mb - 0.00 in0.0 mm 0.00 in0.0 mm
05:40 AM 55.8°F13.2°C 46.1°F7.8°C 70% 5.8 mph S9.3 kmh S 8.1 mph13.0 kmh 29.86 in1011.2 mb - 0.00 in0.0 mm 0.00 in0.0 mm
05:45 AM 55.6°F13.1°C 46.3°F7.9°C 71% 5.8 mph SSW9.3 kmh SSW 5.8 mph9.3 kmh 29.86 in1011.2 mb - 0.00 in0.0 mm 0.00 in0.0 mm
05:50 AM 55.6°F13.1°C 46.3°F7.9°C 71% 4.6 mph SSW7.4 kmh SSW 6.9 mph11.1 kmh 29.86 in1011.2 mb - 0.00 in0.0 mm 0.00 in0.0 mm
05:55 AM 55.6°F13.1°C 46.3°F7.9°C 71% 3.5 mph SSW5.6 kmh SSW 5.8 mph9.3 kmh 29.86 in1011.2 mb - 0.00 in0.0 mm 0.00 in0.0 mm
06:00 AM 55.6°F13.1°C 46.3°F7.9°C 71% 3.5 mph S5.6 kmh S 5.8 mph9.3 kmh 29.86 in1011.2 mb - 0.00 in0.0 mm 0.00 in0.0 mm
06:10 AM 55.6°F13.1°C 46.3°F7.9°C 71% 2.3 mph SSE3.7 kmh SSE 3.5 mph5.6 kmh 29.86 in1011.2 mb - 0.00 in0.0 mm 0.00 in0.0 mm
06:15 AM 55.4°F13.0°C 46.2°F7.9°C 71% 3.5 mph S5.6 kmh S 5.8 mph9.3 kmh 29.86 in1011.2 mb - 0.00 in0.0 mm 0.00 in0.0 mm
06:20 AM 55.2°F12.9°C 46.0°F7.8°C 71% 3.5 mph SSE5.6 kmh SSE 4.6 mph7.4 kmh 29.86 in1011.2 mb - 0.00 in0.0 mm 0.00 in0.0 mm
06:25 AM 55.0°F12.8°C 45.8°F7.7°C 71% 2.3 mph S3.7 kmh S 3.5 mph5.6 kmh 29.86 in1011.2 mb - 0.00 in0.0 mm 0.00 in0.0 mm
06:30 AM 55.0°F12.8°C 46.2°F7.9°C 72% 1.2 mph SSE1.9 kmh SSE 2.3 mph3.7 kmh 29.86 in1011.2 mb - 0.00 in0.0 mm 0.00 in0.0 mm
06:35 AM 54.9°F12.7°C 46.0°F7.8°C 72% 2.3 mph S3.7 kmh S 4.6 mph7.4 kmh 29.86 in1011.2 mb - 0.00 in0.0 mm 0.00 in0.0 mm
06:40 AM 54.7°F12.6°C 45.8°F7.7°C 72% 2.3 mph S3.7 kmh S 4.6 mph7.4 kmh 29.88 in1011.9 mb - 0.00 in0.0 mm 0.00 in0.0 mm
06:45 AM 54.7°F12.6°C 45.8°F7.7°C 72% 2.3 mph SSW3.7 kmh SSW 3.5 mph5.6 kmh 29.88 in1011.9 mb - 0.00 in0.0 mm 0.00 in0.0 mm
06:50 AM 54.6°F12.6°C 45.8°F7.7°C 72% 2.3 mph S3.7 kmh S 2.3 mph3.7 kmh 29.88 in1011.9 mb - 0.00 in0.0 mm 0.00 in0.0 mm
06:55 AM 54.5°F12.5°C 45.7°F7.6°C 72% 3.5 mph S5.6 kmh S 4.6 mph7.4 kmh 29.88 in1011.9 mb - 0.00 in0.0 mm 0.00 in0.0 mm
07:00 AM 54.7°F12.6°C 45.8°F7.7°C 72% 3.5 mph S5.6 kmh S 4.6 mph7.4 kmh 29.88 in1011.9 mb - 0.00 in0.0 mm 0.00 in0.0 mm
07:10 AM 55.0°F12.8°C 46.5°F8.1°C 73% 4.6 mph S7.4 kmh S 6.9 mph11.1 kmh 29.88 in1011.9 mb - 0.00 in0.0 mm 0.00 in0.0 mm
07:15 AM 55.0°F12.8°C 46.5°F8.1°C 73% 4.6 mph S7.4 kmh S 5.8 mph9.3 kmh 29.88 in1011.9 mb - 0.00 in0.0 mm 0.00 in0.0 mm
07:20 AM 55.0°F12.8°C 46.5°F8.1°C 73% 4.6 mph S7.4 kmh S 4.6 mph7.4 kmh 29.88 in1011.9 mb - 0.00 in0.0 mm 0.00 in0.0 mm
07:25 AM 55.2°F12.9°C 46.7°F8.2°C 73% 3.5 mph S5.6 kmh S 3.5 mph5.6 kmh 29.91 in1012.9 mb - 0.00 in0.0 mm 0.00 in0.0 mm
07:30 AM 55.4°F13.0°C 46.9°F8.3°C 73% 3.5 mph S5.6 kmh S 5.8 mph9.3 kmh 29.91 in1012.9 mb - 0.00 in0.0 mm 0.00 in0.0 mm
07:35 AM 55.6°F13.1°C 47.1°F8.4°C 73% 3.5 mph SSE5.6 kmh SSE 4.6 mph7.4 kmh 29.91 in1012.9 mb - 0.00 in0.0 mm 0.00 in0.0 mm
07:40 AM 55.8°F13.2°C 47.2°F8.4°C 73% 3.5 mph SSW5.6 kmh SSW 4.6 mph7.4 kmh 29.91 in1012.9 mb - 0.00 in0.0 mm 0.00 in0.0 mm
07:45 AM 55.9°F13.3°C 47.4°F8.6°C 73% 3.5 mph SSW5.6 kmh SSW 3.5 mph5.6 kmh 29.91 in1012.9 mb - 0.00 in0.0 mm 0.00 in0.0 mm
07:50 AM 55.9°F13.3°C 47.4°F8.6°C 73% 3.5 mph SSW5.6 kmh SSW 5.8 mph9.3 kmh 29.91 in1012.9 mb - 0.00 in0.0 mm 0.00 in0.0 mm
07:55 AM 55.9°F13.3°C 47.4°F8.6°C 73% 2.3 mph SSW3.7 kmh SSW 3.5 mph5.6 kmh 29.91 in1012.9 mb - 0.00 in0.0 mm 0.00 in0.0 mm
08:00 AM 56.1°F13.4°C 47.6°F8.7°C 73% 4.6 mph SSW7.4 kmh SSW 6.9 mph11.1 kmh 29.91 in1012.9 mb - 0.00 in0.0 mm 0.00 in0.0 mm
08:10 AM 57.9°F14.4°C 48.9°F9.4°C 72% 3.5 mph SSW5.6 kmh SSW 4.6 mph7.4 kmh 29.91 in1012.9 mb - 0.00 in0.0 mm 0.00 in0.0 mm
08:15 AM 59.4°F15.2°C 50.4°F10.2°C 72% 3.5 mph SSE5.6 kmh SSE 5.8 mph9.3 kmh 29.91 in1012.9 mb - 0.00 in0.0 mm 0.00 in0.0 mm
08:20 AM 61.1°F16.2°C 51.6°F10.9°C 71% 2.3 mph SSE3.7 kmh SSE 3.5 mph5.6 kmh 29.91 in1012.9 mb - 0.00 in0.0 mm 0.00 in0.0 mm
08:25 AM 62.1°F16.7°C 52.2°F11.2°C 70% 5.8 mph S9.3 kmh S 6.9 mph11.1 kmh 29.91 in1012.9 mb - 0.00 in0.0 mm 0.00 in0.0 mm
08:30 AM 61.9°F16.6°C 51.2°F10.7°C 68% 4.6 mph S7.4 kmh S 6.9 mph11.1 kmh 29.91 in1012.9 mb - 0.00 in0.0 mm 0.00 in0.0 mm
08:35 AM 62.1°F16.7°C 51.0°F10.6°C 67% 2.3 mph S3.7 kmh S 3.5 mph5.6 kmh 29.91 in1012.9 mb - 0.00 in0.0 mm 0.00 in0.0 mm
08:40 AM 62.4°F16.9°C 50.5°F10.3°C 65% 5.8 mph S9.3 kmh S 6.9 mph11.1 kmh 29.91 in1012.9 mb - 0.00 in0.0 mm 0.00 in0.0 mm
08:45 AM 62.8°F17.1°C 50.4°F10.2°C 64% 4.6 mph SE7.4 kmh SE 9.2 mph14.8 kmh 29.91 in1012.9 mb - 0.00 in0.0 mm 0.00 in0.0 mm
08:50 AM 62.6°F17.0°C 49.4°F9.7°C 62% 5.8 mph S9.3 kmh S 10.4 mph16.7 kmh 29.91 in1012.9 mb - 0.00 in0.0 mm 0.00 in0.0 mm
08:55 AM 62.2°F16.8°C 48.6°F9.2°C 61% 4.6 mph SW7.4 kmh SW 5.8 mph9.3 kmh 29.91 in1012.9 mb - 0.00 in0.0 mm 0.00 in0.0 mm
09:00 AM 62.2°F16.8°C 48.6°F9.2°C 61% 5.8 mph SSW9.3 kmh SSW 10.4 mph16.7 kmh 29.91 in1012.9 mb - 0.00 in0.0 mm 0.00 in0.0 mm
09:10 AM 63.1°F17.3°C 49.5°F9.7°C 61% 5.8 mph SSE9.3 kmh SSE 6.9 mph11.1 kmh 29.91 in1012.9 mb - 0.00 in0.0 mm 0.00 in0.0 mm
09:15 AM 62.8°F17.1°C 48.7°F9.3°C 60% 5.8 mph SSE9.3 kmh SSE 9.2 mph14.8 kmh 29.91 in1012.9 mb - 0.00 in0.0 mm 0.00 in0.0 mm
09:20 AM 63.2°F17.3°C 49.0°F9.4°C 60% 3.5 mph S5.6 kmh S 4.6 mph7.4 kmh 29.91 in1012.9 mb - 0.00 in0.0 mm 0.00 in0.0 mm
09:25 AM 63.7°F17.6°C 49.1°F9.5°C 59% 5.8 mph S9.3 kmh S 6.9 mph11.1 kmh 29.91 in1012.9 mb - 0.00 in0.0 mm 0.00 in0.0 mm
09:30 AM 64.4°F18.0°C 49.8°F9.9°C 59% 8.1 mph SSE13.0 kmh SSE 10.4 mph16.7 kmh 29.91 in1012.9 mb - 0.00 in0.0 mm 0.00 in0.0 mm
09:35 AM 64.2°F17.9°C 48.7°F9.3°C 57% 4.6 mph S7.4 kmh S 5.8 mph9.3 kmh 29.91 in1012.9 mb - 0.00 in0.0 mm 0.00 in0.0 mm
09:40 AM 64.2°F17.9°C 48.2°F9.0°C 56% 4.6 mph S7.4 kmh S 5.8 mph9.3 kmh 29.94 in1013.9 mb - 0.00 in0.0 mm 0.00 in0.0 mm
09:45 AM 64.4°F18.0°C 47.9°F8.8°C 55% 5.8 mph S9.3 kmh S 10.4 mph16.7 kmh 29.94 in1013.9 mb - 0.00 in0.0 mm 0.00 in0.0 mm
09:50 AM 64.9°F18.3°C 48.4°F9.1°C 55% 3.5 mph S5.6 kmh S 5.8 mph9.3 kmh 29.94 in1013.9 mb - 0.00 in0.0 mm 0.00 in0.0 mm
09:55 AM 64.7°F18.2°C 47.2°F8.4°C 53% 2.3 mph S3.7 kmh S 4.6 mph7.4 kmh 29.91 in1012.9 mb - 0.00 in0.0 mm 0.00 in0.0 mm
10:00 AM 64.8°F18.2°C 47.2°F8.4°C 53% 4.6 mph S7.4 kmh S 9.2 mph14.8 kmh 29.91 in1012.9 mb - 0.00 in0.0 mm 0.00 in0.0 mm
10:10 AM 65.7°F18.7°C 47.0°F8.3°C 51% 3.5 mph S5.6 kmh S 6.9 mph11.1 kmh 29.91 in1012.9 mb - 0.00 in0.0 mm 0.00 in0.0 mm
10:15 AM 66.1°F18.9°C 47.4°F8.6°C 51% 5.8 mph SSE9.3 kmh SSE 8.1 mph13.0 kmh 29.91 in1012.9 mb - 0.00 in0.0 mm 0.00 in0.0 mm
10:20 AM 66.2°F19.0°C 48.0°F8.9°C 52% 4.6 mph S7.4 kmh S 5.8 mph9.3 kmh 29.91 in1012.9 mb - 0.00 in0.0 mm 0.00 in0.0 mm
10:25 AM 65.8°F18.8°C 52.8°F11.6°C 63% 4.6 mph SSE7.4 kmh SSE 4.6 mph7.4 kmh 29.91 in1012.9 mb - 0.00 in0.0 mm 0.00 in0.0 mm
10:30 AM 65.3°F18.5°C 49.2°F9.6°C 56% 3.5 mph S5.6 kmh S 4.6 mph7.4 kmh 29.91 in1012.9 mb - 0.00 in0.0 mm 0.00 in0.0 mm
10:35 AM 65.7°F18.7°C 49.0°F9.4°C 55% 4.6 mph S7.4 kmh S 6.9 mph11.1 kmh 29.91 in1012.9 mb - 0.00 in0.0 mm 0.00 in0.0 mm
10:40 AM 65.7°F18.7°C 52.3°F11.3°C 62% 3.5 mph S5.6 kmh S 4.6 mph7.4 kmh 29.91 in1012.9 mb - 0.00 in0.0 mm 0.00 in0.0 mm
10:45 AM 65.7°F18.7°C 55.3°F12.9°C 69% 3.5 mph S5.6 kmh S 4.6 mph7.4 kmh 29.91 in1012.9 mb - 0.00 in0.0 mm 0.00 in0.0 mm
10:50 AM 66.4°F19.1°C 53.8°F12.1°C 64% 4.6 mph S7.4 kmh S 8.1 mph13.0 kmh 29.91 in1012.9 mb - 0.00 in0.0 mm 0.00 in0.0 mm
10:55 AM 66.4°F19.1°C 54.7°F12.6°C 66% 5.8 mph SSE9.3 kmh SSE 8.1 mph13.0 kmh 29.91 in1012.9 mb - 0.00 in0.0 mm 0.00 in0.0 mm
11:00 AM 66.5°F19.2°C 56.0°F13.3°C 69% 3.5 mph SSE5.6 kmh SSE 5.8 mph9.3 kmh 29.91 in1012.9 mb - 0.00 in0.0 mm 0.00 in0.0 mm
11:10 AM 67.0°F19.4°C 53.6°F12.0°C 62% 3.5 mph SSE5.6 kmh SSE 4.6 mph7.4 kmh 29.91 in1012.9 mb - 0.00 in0.0 mm 0.00 in0.0 mm
11:15 AM 67.1°F19.5°C 56.2°F13.4°C 68% 3.5 mph S5.6 kmh S 4.6 mph7.4 kmh 29.91 in1012.9 mb - 0.00 in0.0 mm 0.00 in0.0 mm
11:20 AM 67.3°F19.6°C 53.4°F11.9°C 61% 4.6 mph SE7.4 kmh SE 8.1 mph13.0 kmh 29.91 in1012.9 mb - 0.00 in0.0 mm 0.00 in0.0 mm
11:25 AM 67.1°F19.5°C 53.6°F12.0°C 62% 5.8 mph S9.3 kmh S 6.9 mph11.1 kmh 29.91 in1012.9 mb - 0.00 in0.0 mm 0.00 in0.0 mm
11:30 AM 66.8°F19.3°C 54.2°F12.3°C 64% 4.6 mph SSE7.4 kmh SSE 8.1 mph13.0 kmh 29.91 in1012.9 mb - 0.00 in0.0 mm 0.00 in0.0 mm
11:35 AM 66.6°F19.2°C 47.3°F8.5°C 50% 4.6 mph S7.4 kmh S 6.9 mph11.1 kmh 29.91 in1012.9 mb - 0.00 in0.0 mm 0.00 in0.0 mm
11:40 AM 66.9°F19.4°C 48.2°F9.0°C 51% 5.8 mph SE9.3 kmh SE 8.1 mph13.0 kmh 29.91 in1012.9 mb - 0.00 in0.0 mm 0.00 in0.0 mm
11:45 AM 66.9°F19.4°C 48.7°F9.3°C 52% 4.6 mph SE7.4 kmh SE 5.8 mph9.3 kmh 29.91 in1012.9 mb - 0.00 in0.0 mm 0.00 in0.0 mm
11:50 AM 66.7°F19.3°C 49.6°F9.8°C 54% 3.5 mph SSE5.6 kmh SSE 4.6 mph7.4 kmh 29.91 in1012.9 mb - 0.00 in0.0 mm 0.00 in0.0 mm
11:55 AM 67.1°F19.5°C 47.3°F8.5°C 49% 5.8 mph S9.3 kmh S 9.2 mph14.8 kmh 29.91 in1012.9 mb - 0.00 in0.0 mm 0.00 in0.0 mm
12:00 PM 67.0°F19.4°C 50.8°F10.4°C 56% 5.8 mph SE9.3 kmh SE 6.9 mph11.1 kmh 29.91 in1012.9 mb - 0.00 in0.0 mm 0.00 in0.0 mm
12:10 PM 68.2°F20.1°C 50.9°F10.5°C 54% 4.6 mph SE7.4 kmh SE 6.9 mph11.1 kmh 29.91 in1012.9 mb - 0.00 in0.0 mm 0.00 in0.0 mm
12:15 PM 67.5°F19.7°C 50.3°F10.2°C 54% 6.9 mph SE11.1 kmh SE 9.2 mph14.8 kmh 29.91 in1012.9 mb - 0.00 in0.0 mm 0.00 in0.0 mm
12:20 PM 67.5°F19.7°C 51.7°F10.9°C 57% 6.9 mph SE11.1 kmh SE 10.4 mph16.7 kmh 29.91 in1012.9 mb - 0.00 in0.0 mm 0.00 in0.0 mm
12:25 PM 66.6°F19.2°C 48.4°F9.1°C 52% 3.5 mph SE5.6 kmh SE 3.5 mph5.6 kmh 29.91 in1012.9 mb - 0.00 in0.0 mm 0.00 in0.0 mm
12:30 PM 66.0°F18.9°C 47.3°F8.5°C 51% 4.6 mph SE7.4 kmh SE 5.8 mph9.3 kmh 29.91 in1012.9 mb - 0.00 in0.0 mm 0.00 in0.0 mm
12:35 PM 64.4°F18.0°C 46.4°F8.0°C 52% 5.8 mph E9.3 kmh E 8.1 mph13.0 kmh 29.91 in1012.9 mb - 0.00 in0.0 mm 0.00 in0.0 mm
12:40 PM 63.7°F17.6°C 46.8°F8.2°C 54% 8.1 mph ESE13.0 kmh ESE 11.5 mph18.5 kmh 29.88 in1011.9 mb - 0.00 in0.0 mm 0.00 in0.0 mm
12:45 PM 63.5°F17.5°C 47.0°F8.3°C 55% 6.9 mph SE11.1 kmh SE 8.1 mph13.0 kmh 29.88 in1011.9 mb - 0.00 in0.0 mm 0.00 in0.0 mm
12:50 PM 63.9°F17.7°C 48.8°F9.3°C 58% 5.8 mph SE9.3 kmh SE 6.9 mph11.1 kmh 29.88 in1011.9 mb - 0.00 in0.0 mm 0.00 in0.0 mm
12:55 PM 64.2°F17.9°C 48.2°F9.0°C 56% 4.6 mph SE7.4 kmh SE 6.9 mph11.1 kmh 29.88 in1011.9 mb - 0.00 in0.0 mm 0.00 in0.0 mm
01:00 PM 64.1°F17.8°C 48.1°F8.9°C 56% 4.6 mph ESE7.4 kmh ESE 6.9 mph11.1 kmh 29.88 in1011.9 mb - 0.00 in0.0 mm 0.00 in0.0 mm
01:10 PM 64.6°F18.1°C 51.3°F10.7°C 62% 4.6 mph E7.4 kmh E 5.8 mph9.3 kmh 29.88 in1011.9 mb - 0.00 in0.0 mm 0.00 in0.0 mm
01:15 PM 65.1°F18.4°C 48.1°F8.9°C 54% 4.6 mph E7.4 kmh E 4.6 mph7.4 kmh 29.88 in1011.9 mb - 0.00 in0.0 mm 0.00 in0.0 mm
01:20 PM 64.9°F18.3°C 48.3°F9.1°C 55% 5.8 mph ESE9.3 kmh ESE 5.8 mph9.3 kmh 29.88 in1011.9 mb - 0.00 in0.0 mm 0.00 in0.0 mm
01:25 PM 65.5°F18.6°C 48.9°F9.4°C 55% 4.6 mph SE7.4 kmh SE 4.6 mph7.4 kmh 29.88 in1011.9 mb - 0.00 in0.0 mm 0.00 in0.0 mm
01:30 PM 66.0°F18.9°C 48.4°F9.1°C 53% 5.8 mph SE9.3 kmh SE 8.1 mph13.0 kmh 29.88 in1011.9 mb - 0.00 in0.0 mm 0.00 in0.0 mm
01:35 PM 66.0°F18.9°C 49.3°F9.6°C 55% 5.8 mph ENE9.3 kmh ENE 6.9 mph11.1 kmh 29.88 in1011.9 mb - 0.00 in0.0 mm 0.00 in0.0 mm
01:40 PM 68.2°F20.1°C 54.2°F12.3°C 61% 5.8 mph E9.3 kmh E 6.9 mph11.1 kmh 29.86 in1011.2 mb - 0.00 in0.0 mm 0.00 in0.0 mm
01:45 PM 67.5°F19.7°C 49.2°F9.6°C 52% 5.8 mph E9.3 kmh E 6.9 mph11.1 kmh 29.86 in1011.2 mb - 0.00 in0.0 mm 0.00 in0.0 mm
01:50 PM 67.5°F19.7°C 50.3°F10.2°C 54% 4.6 mph E7.4 kmh E 6.9 mph11.1 kmh 29.86 in1011.2 mb - 0.00 in0.0 mm 0.00 in0.0 mm
01:55 PM 67.0°F19.4°C 51.7°F10.9°C 58% 5.8 mph ENE9.3 kmh ENE 8.1 mph13.0 kmh 29.86 in1011.2 mb - 0.00 in0.0 mm 0.00 in0.0 mm
02:00 PM 66.9°F19.4°C 56.0°F13.3°C 68% 5.8 mph ESE9.3 kmh ESE 6.9 mph11.1 kmh 29.86 in1011.2 mb - 0.00 in0.0 mm 0.00 in0.0 mm
02:10 PM 66.9°F19.4°C 53.0°F11.7°C 61% 4.6 mph E7.4 kmh E 5.8 mph9.3 kmh 29.86 in1011.2 mb - 0.00 in0.0 mm 0.00 in0.0 mm
02:15 PM 67.0°F19.4°C 49.3°F9.6°C 53% 5.8 mph E9.3 kmh E 5.8 mph9.3 kmh 29.86 in1011.2 mb - 0.00 in0.0 mm 0.00 in0.0 mm
02:20 PM 67.3°F19.6°C 49.0°F9.4°C 52% 6.9 mph NE11.1 kmh NE 8.1 mph13.0 kmh 29.86 in1011.2 mb - 0.00 in0.0 mm 0.00 in0.0 mm
02:25 PM 67.1°F19.5°C 48.4°F9.1°C 51% 4.6 mph ESE7.4 kmh ESE 6.9 mph11.1 kmh 29.86 in1011.2 mb - 0.00 in0.0 mm 0.00 in0.0 mm
02:30 PM 66.9°F19.4°C 53.0°F11.7°C 61% 6.9 mph NE11.1 kmh NE 8.1 mph13.0 kmh 29.86 in1011.2 mb - 0.00 in0.0 mm 0.00 in0.0 mm
02:35 PM 66.7°F19.3°C 47.5°F8.6°C 50% 5.8 mph E9.3 kmh E 6.9 mph11.1 kmh 29.86 in1011.2 mb - 0.00 in0.0 mm 0.00 in0.0 mm
02:40 PM 67.2°F19.6°C 49.0°F9.4°C 52% 5.8 mph ENE9.3 kmh ENE 6.9 mph11.1 kmh 29.86 in1011.2 mb - 0.00 in0.0 mm 0.00 in0.0 mm
02:45 PM 67.7°F19.8°C 54.6°F12.6°C 63% 5.8 mph ENE9.3 kmh ENE 6.9 mph11.1 kmh 29.86 in1011.2 mb - 0.00 in0.0 mm 0.00 in0.0 mm
02:50 PM 67.2°F19.6°C 50.0°F10.0°C 54% 6.9 mph NE11.1 kmh NE 8.1 mph13.0 kmh 29.86 in1011.2 mb - 0.00 in0.0 mm 0.00 in0.0 mm
02:55 PM 67.3°F19.6°C 51.5°F10.8°C 57% 8.1 mph ENE13.0 kmh ENE 9.2 mph14.8 kmh 29.86 in1011.2 mb - 0.00 in0.0 mm 0.00 in0.0 mm
03:00 PM 67.3°F19.6°C 50.6°F10.3°C 55% 6.9 mph NE11.1 kmh NE 8.1 mph13.0 kmh 29.86 in1011.2 mb - 0.00 in0.0 mm 0.00 in0.0 mm
03:10 PM 66.9°F19.4°C 56.8°F13.8°C 70% 5.8 mph ENE9.3 kmh ENE 6.9 mph11.1 kmh 29.86 in1011.2 mb - 0.00 in0.0 mm 0.00 in0.0 mm
03:15 PM 67.1°F19.5°C 56.2°F13.4°C 68% 5.8 mph E9.3 kmh E 9.2 mph14.8 kmh 29.86 in1011.2 mb - 0.00 in0.0 mm 0.00 in0.0 mm
03:20 PM 67.3°F19.6°C 52.4°F11.3°C 59% 6.9 mph NE11.1 kmh NE 8.1 mph13.0 kmh 29.86 in1011.2 mb - 0.00 in0.0 mm 0.00 in0.0 mm
03:25 PM 66.2°F19.0°C 51.0°F10.6°C 58% 6.9 mph NE11.1 kmh NE 8.1 mph13.0 kmh 29.86 in1011.2 mb - 0.00 in0.0 mm 0.00 in0.0 mm
03:30 PM 66.2°F19.0°C 48.6°F9.2°C 53% 5.8 mph NE9.3 kmh NE 8.1 mph13.0 kmh 29.86 in1011.2 mb - 0.00 in0.0 mm 0.00 in0.0 mm
03:35 PM 66.3°F19.1°C 55.8°F13.2°C 69% 5.8 mph ENE9.3 kmh ENE 6.9 mph11.1 kmh 29.86 in1011.2 mb - 0.00 in0.0 mm 0.00 in0.0 mm
03:40 PM 66.4°F19.1°C 50.3°F10.2°C 56% 4.6 mph E7.4 kmh E 6.9 mph11.1 kmh 29.86 in1011.2 mb - 0.00 in0.0 mm 0.00 in0.0 mm
03:45 PM 66.4°F19.1°C 56.7°F13.7°C 71% 5.8 mph ENE9.3 kmh ENE 5.8 mph9.3 kmh 29.86 in1011.2 mb - 0.00 in0.0 mm 0.00 in0.0 mm
03:50 PM 66.4°F19.1°C 57.1°F13.9°C 72% 5.8 mph E9.3 kmh E 8.1 mph13.0 kmh 29.86 in1011.2 mb - 0.00 in0.0 mm 0.00 in0.0 mm
03:55 PM 66.7°F19.3°C 51.5°F10.8°C 58% 4.6 mph NE7.4 kmh NE 6.9 mph11.1 kmh 29.86 in1011.2 mb - 0.00 in0.0 mm 0.00 in0.0 mm
04:00 PM 66.6°F19.2°C 48.4°F9.1°C 52% 5.8 mph NE9.3 kmh NE 6.9 mph11.1 kmh 29.86 in1011.2 mb - 0.00 in0.0 mm 0.00 in0.0 mm
04:10 PM 65.8°F18.8°C 53.7°F12.1°C 65% 5.8 mph E9.3 kmh E 6.9 mph11.1 kmh 29.82 in1009.8 mb - 0.00 in0.0 mm 0.00 in0.0 mm
04:15 PM 65.5°F18.6°C 57.0°F13.9°C 74% 5.8 mph E9.3 kmh E 9.2 mph14.8 kmh 29.82 in1009.8 mb - 0.00 in0.0 mm 0.00 in0.0 mm
04:20 PM 64.9°F18.3°C 49.3°F9.6°C 57% 6.9 mph E11.1 kmh E 8.1 mph13.0 kmh 29.82 in1009.8 mb - 0.00 in0.0 mm 0.00 in0.0 mm
04:25 PM 64.2°F17.9°C 55.7°F13.2°C 74% 5.8 mph NE9.3 kmh NE 8.1 mph13.0 kmh 29.82 in1009.8 mb - 0.00 in0.0 mm 0.00 in0.0 mm
04:30 PM 63.0°F17.2°C 54.5°F12.5°C 74% 6.9 mph NE11.1 kmh NE 8.1 mph13.0 kmh 29.82 in1009.8 mb - 0.00 in0.0 mm 0.00 in0.0 mm
04:35 PM 62.2°F16.8°C 50.3°F10.2°C 65% 5.8 mph ENE9.3 kmh ENE 8.1 mph13.0 kmh 29.82 in1009.8 mb - 0.00 in0.0 mm 0.00 in0.0 mm
04:40 PM 61.7°F16.5°C 54.8°F12.7°C 78% 4.6 mph E7.4 kmh E 6.9 mph11.1 kmh 29.82 in1009.8 mb - 0.00 in0.0 mm 0.00 in0.0 mm
04:45 PM 61.2°F16.2°C 44.9°F7.2°C 55% 4.6 mph ENE7.4 kmh ENE 5.8 mph9.3 kmh 29.82 in1009.8 mb - 0.00 in0.0 mm 0.00 in0.0 mm
04:50 PM 60.6°F15.9°C 44.4°F6.9°C 55% 4.6 mph ENE7.4 kmh ENE 6.9 mph11.1 kmh 29.82 in1009.8 mb - 0.00 in0.0 mm 0.00 in0.0 mm
04:55 PM 60.1°F15.6°C 43.4°F6.3°C 54% 5.8 mph ENE9.3 kmh ENE 6.9 mph11.1 kmh 29.82 in1009.8 mb - 0.00 in0.0 mm 0.00 in0.0 mm
05:00 PM 59.4°F15.2°C 43.7°F6.5°C 56% 5.8 mph ENE9.3 kmh ENE 6.9 mph11.1 kmh 29.82 in1009.8 mb - 0.00 in0.0 mm 0.00 in0.0 mm
05:10 PM 58.3°F14.6°C 44.0°F6.7°C 59% 5.8 mph ESE9.3 kmh ESE 8.1 mph13.0 kmh 29.82 in1009.8 mb - 0.00 in0.0 mm 0.00 in0.0 mm
05:15 PM 57.6°F14.2°C 43.8°F6.6°C 60% 5.8 mph E9.3 kmh E 8.1 mph13.0 kmh 29.82 in1009.8 mb - 0.00 in0.0 mm 0.00 in0.0 mm
05:20 PM 57.1°F13.9°C 43.8°F6.6°C 61% 5.8 mph NE9.3 kmh NE 6.9 mph11.1 kmh 29.82 in1009.8 mb - 0.00 in0.0 mm 0.00 in0.0 mm
05:25 PM 56.5°F13.6°C 44.0°F6.7°C 63% 5.8 mph ENE9.3 kmh ENE 5.8 mph9.3 kmh 29.82 in1009.8 mb - 0.00 in0.0 mm 0.00 in0.0 mm
05:30 PM 56.1°F13.4°C 44.1°F6.7°C 64% 5.8 mph E9.3 kmh E 9.2 mph14.8 kmh 29.82 in1009.8 mb - 0.00 in0.0 mm 0.00 in0.0 mm
05:35 PM 55.8°F13.2°C 44.2°F6.8°C 65% 4.6 mph E7.4 kmh E 5.8 mph9.3 kmh 29.82 in1009.8 mb - 0.00 in0.0 mm 0.00 in0.0 mm
05:40 PM 55.4°F13.0°C 44.2°F6.8°C 66% 6.9 mph NE11.1 kmh NE 8.1 mph13.0 kmh 29.80 in1009.1 mb - 0.00 in0.0 mm 0.00 in0.0 mm
05:45 PM 55.2°F12.9°C 44.4°F6.9°C 67% 6.9 mph NE11.1 kmh NE 9.2 mph14.8 kmh 29.80 in1009.1 mb - 0.00 in0.0 mm 0.00 in0.0 mm
05:50 PM 55.0°F12.8°C 44.6°F7.0°C 68% 6.9 mph NE11.1 kmh NE 10.4 mph16.7 kmh 29.80 in1009.1 mb - 0.00 in0.0 mm 0.00 in0.0 mm
05:55 PM 54.8°F12.7°C 44.8°F7.1°C 69% 6.9 mph NNE11.1 kmh NNE 5.8 mph9.3 kmh 29.80 in1009.1 mb - 0.00 in0.0 mm 0.00 in0.0 mm
06:00 PM 54.7°F12.6°C 45.1°F7.3°C 70% 6.9 mph NE11.1 kmh NE 8.1 mph13.0 kmh 29.80 in1009.1 mb - 0.00 in0.0 mm 0.00 in0.0 mm
06:10 PM 54.1°F12.3°C 44.6°F7.0°C 70% 4.6 mph ENE7.4 kmh ENE 8.1 mph13.0 kmh 29.80 in1009.1 mb - 0.00 in0.0 mm 0.00 in0.0 mm
06:15 PM 54.1°F12.3°C 44.9°F7.2°C 71% 3.5 mph E5.6 kmh E 4.6 mph7.4 kmh 29.80 in1009.1 mb - 0.00 in0.0 mm 0.00 in0.0 mm
06:20 PM 53.8°F12.1°C 44.2°F6.8°C 70% 4.6 mph ENE7.4 kmh ENE 5.8 mph9.3 kmh 29.80 in1009.1 mb - 0.00 in0.0 mm 0.00 in0.0 mm
06:25 PM 53.8°F12.1°C 44.6°F7.0°C 71% 4.6 mph NE7.4 kmh NE 5.8 mph9.3 kmh 29.80 in1009.1 mb - 0.00 in0.0 mm 0.00 in0.0 mm
06:30 PM 53.8°F12.1°C 44.6°F7.0°C 71% 4.6 mph ENE7.4 kmh ENE 4.6 mph7.4 kmh 29.80 in1009.1 mb - 0.00 in0.0 mm 0.00 in0.0 mm
06:35 PM 53.9°F12.2°C 45.1°F7.3°C 72% 4.6 mph E7.4 kmh E 6.9 mph11.1 kmh 29.80 in1009.1 mb - 0.00 in0.0 mm 0.00 in0.0 mm
06:40 PM 54.0°F12.2°C 45.1°F7.3°C 72% 5.8 mph E9.3 kmh E 8.1 mph13.0 kmh 29.80 in1009.1 mb - 0.00 in0.0 mm 0.00 in0.0 mm
06:45 PM 54.0°F12.2°C 45.1°F7.3°C 72% 8.1 mph E13.0 kmh E 11.5 mph18.5 kmh 29.80 in1009.1 mb - 0.00 in0.0 mm 0.00 in0.0 mm
06:50 PM 54.0°F12.2°C 45.5°F7.5°C 73% 5.8 mph ESE9.3 kmh ESE 6.9 mph11.1 kmh 29.80 in1009.1 mb - 0.00 in0.0 mm 0.00 in0.0 mm
06:55 PM 54.0°F12.2°C 45.5°F7.5°C 73% 3.5 mph E5.6 kmh E 4.6 mph7.4 kmh 29.80 in1009.1 mb - 0.00 in0.0 mm 0.00 in0.0 mm
07:00 PM 53.8°F12.1°C 45.3°F7.4°C 73% 4.6 mph SE7.4 kmh SE 6.9 mph11.1 kmh 29.80 in1009.1 mb - 0.00 in0.0 mm 0.00 in0.0 mm
07:10 PM 54.0°F12.2°C 45.9°F7.7°C 74% 6.9 mph SE11.1 kmh SE 10.4 mph16.7 kmh 29.80 in1009.1 mb - 0.00 in0.0 mm 0.00 in0.0 mm
07:15 PM 54.1°F12.3°C 46.0°F7.8°C 74% 8.1 mph SE13.0 kmh SE 12.7 mph20.4 kmh 29.80 in1009.1 mb - 0.00 in0.0 mm 0.00 in0.0 mm
07:20 PM 54.3°F12.4°C 46.6°F8.1°C 75% 10.4 mph SE16.7 kmh SE 12.7 mph20.4 kmh 29.80 in1009.1 mb - 0.00 in0.0 mm 0.00 in0.0 mm
07:25 PM 54.3°F12.4°C 46.9°F8.3°C 76% 6.9 mph SE11.1 kmh SE 11.5 mph18.5 kmh 29.80 in1009.1 mb - 0.00 in0.0 mm 0.00 in0.0 mm
07:30 PM 54.3°F12.4°C 46.9°F8.3°C 76% 8.1 mph ESE13.0 kmh ESE 9.2 mph14.8 kmh 29.80 in1009.1 mb - 0.00 in0.0 mm 0.00 in0.0 mm
07:35 PM 54.3°F12.4°C 46.9°F8.3°C 76% 6.9 mph ESE11.1 kmh ESE 8.1 mph13.0 kmh 29.80 in1009.1 mb - 0.00 in0.0 mm 0.00 in0.0 mm
07:40 PM 54.5°F12.5°C 47.1°F8.4°C 76% 6.9 mph ENE11.1 kmh ENE 8.1 mph13.0 kmh 29.80 in1009.1 mb - 0.00 in0.0 mm 0.00 in0.0 mm
07:45 PM 54.5°F12.5°C 47.1°F8.4°C 76% 6.9 mph ESE11.1 kmh ESE 8.1 mph13.0 kmh 29.80 in1009.1 mb - 0.00 in0.0 mm 0.00 in0.0 mm
07:50 PM 54.5°F12.5°C 47.4°F8.6°C 77% 6.9 mph E11.1 kmh E 8.1 mph13.0 kmh 29.80 in1009.1 mb - 0.00 in0.0 mm 0.00 in0.0 mm
07:55 PM 54.7°F12.6°C 47.6°F8.7°C 77% 6.9 mph ENE11.1 kmh ENE 8.1 mph13.0 kmh 29.80 in1009.1 mb - 0.00 in0.0 mm 0.00 in0.0 mm
08:00 PM 54.7°F12.6°C 47.6°F8.7°C 77% 6.9 mph E11.1 kmh E 8.1 mph13.0 kmh 29.80 in1009.1 mb - 0.00 in0.0 mm 0.00 in0.0 mm
08:10 PM 54.9°F12.7°C 47.8°F8.8°C 77% 4.6 mph ENE7.4 kmh ENE 5.8 mph9.3 kmh 29.80 in1009.1 mb - 0.00 in0.0 mm 0.00 in0.0 mm
08:15 PM 54.9°F12.7°C 47.8°F8.8°C 77% 4.6 mph NE7.4 kmh NE 6.9 mph11.1 kmh 29.80 in1009.1 mb - 0.00 in0.0 mm 0.00 in0.0 mm
08:20 PM 54.9°F12.7°C 48.1°F8.9°C 78% 4.6 mph ENE7.4 kmh ENE 4.6 mph7.4 kmh 29.80 in1009.1 mb - 0.00 in0.0 mm 0.00 in0.0 mm
08:25 PM 54.9°F12.7°C 48.1°F8.9°C 78% 5.8 mph NE9.3 kmh NE 8.1 mph13.0 kmh 29.80 in1009.1 mb - 0.00 in0.0 mm 0.00 in0.0 mm
08:30 PM 54.9°F12.7°C 48.1°F8.9°C 78% 5.8 mph E9.3 kmh E 9.2 mph14.8 kmh 29.80 in1009.1 mb - 0.00 in0.0 mm 0.00 in0.0 mm
08:35 PM 54.9°F12.7°C 48.2°F9.0°C 78% 5.8 mph ENE9.3 kmh ENE 5.8 mph9.3 kmh 29.80 in1009.1 mb - 0.00 in0.0 mm 0.00 in0.0 mm
08:40 PM 55.0°F12.8°C 48.3°F9.1°C 78% 6.9 mph E11.1 kmh E 9.2 mph14.8 kmh 29.77 in1008.1 mb - 0.00 in0.0 mm 0.00 in0.0 mm
08:45 PM 55.0°F12.8°C 48.3°F9.1°C 78% 3.5 mph NE5.6 kmh NE 5.8 mph9.3 kmh 29.77 in1008.1 mb - 0.00 in0.0 mm 0.00 in0.0 mm
08:50 PM 55.0°F12.8°C 48.3°F9.1°C 78% 5.8 mph NE9.3 kmh NE 9.2 mph14.8 kmh 29.77 in1008.1 mb - 0.00 in0.0 mm 0.00 in0.0 mm
08:55 PM 55.0°F12.8°C 48.3°F9.1°C 78% 4.6 mph NE7.4 kmh NE 8.1 mph13.0 kmh 29.77 in1008.1 mb - 0.00 in0.0 mm 0.00 in0.0 mm
09:00 PM 55.0°F12.8°C 48.3°F9.1°C 78% 4.6 mph NE7.4 kmh NE 5.8 mph9.3 kmh 29.77 in1008.1 mb - 0.00 in0.0 mm 0.00 in0.0 mm
09:10 PM 55.0°F12.8°C 48.6°F9.2°C 79% 5.8 mph NE9.3 kmh NE 6.9 mph11.1 kmh 29.77 in1008.1 mb - 0.00 in0.0 mm 0.00 in0.0 mm
09:15 PM 55.0°F12.8°C 48.6°F9.2°C 79% 6.9 mph NE11.1 kmh NE 8.1 mph13.0 kmh 29.77 in1008.1 mb - 0.00 in0.0 mm 0.00 in0.0 mm
09:20 PM 55.0°F12.8°C 48.6°F9.2°C 79% 5.8 mph NE9.3 kmh NE 9.2 mph14.8 kmh 29.77 in1008.1 mb - 0.00 in0.0 mm 0.00 in0.0 mm
09:25 PM 55.0°F12.8°C 48.6°F9.2°C 79% 5.8 mph NE9.3 kmh NE 6.9 mph11.1 kmh 29.80 in1009.1 mb - 0.00 in0.0 mm 0.00 in0.0 mm
09:30 PM 55.0°F12.8°C 48.6°F9.2°C 79% 6.9 mph NE11.1 kmh NE 8.1 mph13.0 kmh 29.80 in1009.1 mb - 0.00 in0.0 mm 0.00 in0.0 mm
09:35 PM 55.0°F12.8°C 48.6°F9.2°C 79% 4.6 mph NE7.4 kmh NE 5.8 mph9.3 kmh 29.80 in1009.1 mb - 0.00 in0.0 mm 0.00 in0.0 mm
09:40 PM 55.0°F12.8°C 48.6°F9.2°C 79% 4.6 mph NE7.4 kmh NE 4.6 mph7.4 kmh 29.80 in1009.1 mb - 0.00 in0.0 mm 0.00 in0.0 mm
09:45 PM 54.9°F12.7°C 48.5°F9.2°C 79% 3.5 mph E5.6 kmh E 4.6 mph7.4 kmh 29.80 in1009.1 mb - 0.00 in0.0 mm 0.00 in0.0 mm
09:50 PM 54.7°F12.6°C 48.3°F9.1°C 79% 4.6 mph SE7.4 kmh SE 5.8 mph9.3 kmh 29.80 in1009.1 mb - 0.00 in0.0 mm 0.00 in0.0 mm
09:55 PM 54.5°F12.5°C 48.1°F8.9°C 79% 4.6 mph E7.4 kmh E 6.9 mph11.1 kmh 29.80 in1009.1 mb - 0.00 in0.0 mm 0.00 in0.0 mm
10:00 PM 54.3°F12.4°C 47.9°F8.8°C 79% 3.5 mph E5.6 kmh E 6.9 mph11.1 kmh 29.80 in1009.1 mb - 0.00 in0.0 mm 0.00 in0.0 mm
10:10 PM 54.0°F12.2°C 47.6°F8.7°C 79% 4.6 mph E7.4 kmh E 5.8 mph9.3 kmh 29.80 in1009.1 mb - 0.00 in0.0 mm 0.00 in0.0 mm
10:15 PM 54.0°F12.2°C 47.6°F8.7°C 79% 4.6 mph ESE7.4 kmh ESE 8.1 mph13.0 kmh 29.80 in1009.1 mb - 0.00 in0.0 mm 0.00 in0.0 mm
10:20 PM 54.0°F12.2°C 47.6°F8.7°C 79% 5.8 mph E9.3 kmh E 8.1 mph13.0 kmh 29.80 in1009.1 mb - 0.00 in0.0 mm 0.00 in0.0 mm
10:25 PM 54.0°F12.2°C 47.9°F8.8°C 80% 4.6 mph E7.4 kmh E 5.8 mph9.3 kmh 29.80 in1009.1 mb - 0.00 in0.0 mm 0.00 in0.0 mm
10:30 PM 54.0°F12.2°C 47.9°F8.8°C 80% 5.8 mph ENE9.3 kmh ENE 8.1 mph13.0 kmh 29.80 in1009.1 mb - 0.00 in0.0 mm 0.00 in0.0 mm
10:35 PM 53.9°F12.2°C 47.9°F8.8°C 80% 3.5 mph E5.6 kmh E 5.8 mph9.3 kmh 29.80 in1009.1 mb - 0.00 in0.0 mm 0.00 in0.0 mm
10:40 PM 53.8°F12.1°C 47.8°F8.8°C 80% 3.5 mph ESE5.6 kmh ESE 6.9 mph11.1 kmh 29.77 in1008.1 mb - 0.00 in0.0 mm 0.00 in0.0 mm
10:45 PM 53.6°F12.0°C 47.6°F8.7°C 80% 3.5 mph ESE5.6 kmh ESE 5.8 mph9.3 kmh 29.77 in1008.1 mb - 0.00 in0.0 mm 0.00 in0.0 mm
10:50 PM 53.6°F12.0°C 47.6°F8.7°C 80% 5.8 mph SE9.3 kmh SE 8.1 mph13.0 kmh 29.77 in1008.1 mb - 0.00 in0.0 mm 0.00 in0.0 mm
10:55 PM 53.6°F12.0°C 47.6°F8.7°C 80% 5.8 mph SSE9.3 kmh SSE 9.2 mph14.8 kmh 29.74 in1007.1 mb - 0.00 in0.0 mm 0.00 in0.0 mm
11:00 PM 53.6°F12.0°C 47.9°F8.8°C 81% 6.9 mph SE11.1 kmh SE 11.5 mph18.5 kmh 29.74 in1007.1 mb - 0.00 in0.0 mm 0.00 in0.0 mm
11:10 PM 53.8°F12.1°C 48.4°F9.1°C 82% 8.1 mph SE13.0 kmh SE 13.8 mph22.2 kmh 29.71 in1006.1 mb - 0.00 in0.0 mm 0.00 in0.0 mm
11:15 PM 53.8°F12.1°C 48.4°F9.1°C 82% 8.1 mph SE13.0 kmh SE 11.5 mph18.5 kmh 29.71 in1006.1 mb - 0.00 in0.0 mm 0.00 in0.0 mm
11:20 PM 54.0°F12.2°C 48.9°F9.4°C 83% 6.9 mph SSE11.1 kmh SSE 11.5 mph18.5 kmh 29.71 in1006.1 mb - 0.00 in0.0 mm 0.00 in0.0 mm
11:25 PM 53.9°F12.2°C 48.5°F9.2°C 82% 9.2 mph SE14.8 kmh SE 13.8 mph22.2 kmh 29.74 in1007.1 mb - 0.00 in0.0 mm 0.00 in0.0 mm
11:30 PM 53.8°F12.1°C 48.8°F9.3°C 83% 8.1 mph SE13.0 kmh SE 10.4 mph16.7 kmh 29.74 in1007.1 mb - 0.00 in0.0 mm 0.00 in0.0 mm
11:35 PM 54.0°F12.2°C 48.9°F9.4°C 83% 6.9 mph E11.1 kmh E 9.2 mph14.8 kmh 29.74 in1007.1 mb - 0.00 in0.0 mm 0.00 in0.0 mm
11:40 PM 53.9°F12.2°C 48.8°F9.3°C 83% 8.1 mph SSE13.0 kmh SSE 11.5 mph18.5 kmh 29.74 in1007.1 mb - 0.00 in0.0 mm 0.00 in0.0 mm
11:45 PM 54.0°F12.2°C 48.9°F9.4°C 83% 8.1 mph SE13.0 kmh SE 10.4 mph16.7 kmh 29.74 in1007.1 mb - 0.00 in0.0 mm 0.00 in0.0 mm
11:50 PM 53.8°F12.1°C 48.7°F9.3°C 83% 9.2 mph SE14.8 kmh SE 11.5 mph18.5 kmh 29.74 in1007.1 mb - 0.00 in0.0 mm 0.00 in0.0 mm
11:55 PM 53.8°F12.1°C 48.7°F9.3°C 83% 8.1 mph SE13.0 kmh SE 11.5 mph18.5 kmh 29.74 in1007.1 mb - 0.00 in0.0 mm 0.00 in0.0 mm